sensor_id;sensor_type;location;lat;lon;timestamp;pressure;altitude;pressure_sealevel;temperature;humidity
14204;BME280;7185;51.854;6.622;2023-02-18T00:01:10;101916.53;;;11.89;100.00
14204;BME280;7185;51.854;6.622;2023-02-18T00:03:42;101915.66;;;11.84;100.00
14204;BME280;7185;51.854;6.622;2023-02-18T00:06:16;101918.28;;;11.92;100.00
14204;BME280;7185;51.854;6.622;2023-02-18T00:08:50;101904.28;;;11.84;100.00
14204;BME280;7185;51.854;6.622;2023-02-18T00:11:22;101901.66;;;11.87;100.00
14204;BME280;7185;51.854;6.622;2023-02-18T00:13:57;101899.91;;;11.86;100.00
14204;BME280;7185;51.854;6.622;2023-02-18T00:16:30;101897.28;;;11.86;100.00
14204;BME280;7185;51.854;6.622;2023-02-18T00:19:07;101899.00;;;11.93;100.00
14204;BME280;7185;51.854;6.622;2023-02-18T00:21:40;101905.19;;;11.79;100.00
14204;BME280;7185;51.854;6.622;2023-02-18T00:24:14;101895.56;;;11.72;100.00
14204;BME280;7185;51.854;6.622;2023-02-18T00:26:49;101880.66;;;11.82;100.00
14204;BME280;7185;51.854;6.622;2023-02-18T00:29:21;101876.28;;;11.79;100.00
14204;BME280;7185;51.854;6.622;2023-02-18T00:31:53;101875.41;;;11.71;100.00
14204;BME280;7185;51.854;6.622;2023-02-18T00:34:24;101874.53;;;11.69;100.00
14204;BME280;7185;51.854;6.622;2023-02-18T00:36:57;101872.75;;;11.84;100.00
14204;BME280;7185;51.854;6.622;2023-02-18T00:39:30;101860.50;;;11.83;100.00
14204;BME280;7185;51.854;6.622;2023-02-18T00:42:01;101867.50;;;11.87;100.00
14204;BME280;7185;51.854;6.622;2023-02-18T00:44:33;101864.84;;;11.85;100.00
14204;BME280;7185;51.854;6.622;2023-02-18T00:47:05;101868.41;;;11.73;100.00
14204;BME280;7185;51.854;6.622;2023-02-18T00:49:36;101871.03;;;11.73;100.00
14204;BME280;7185;51.854;6.622;2023-02-18T00:52:08;101866.69;;;11.63;100.00
14204;BME280;7185;51.854;6.622;2023-02-18T00:54:41;101865.78;;;11.67;100.00
14204;BME280;7185;51.854;6.622;2023-02-18T00:57:13;101855.22;;;11.86;100.00
14204;BME280;7185;51.854;6.622;2023-02-18T00:59:44;101856.09;;;11.88;100.00
14204;BME280;7185;51.854;6.622;2023-02-18T01:02:16;101858.75;;;11.75;100.00
14204;BME280;7185;51.854;6.622;2023-02-18T01:04:48;101850.00;;;11.76;100.00
14204;BME280;7185;51.854;6.622;2023-02-18T01:07:19;101855.28;;;11.73;100.00
14204;BME280;7185;51.854;6.622;2023-02-18T01:09:52;101844.72;;;11.86;100.00
14204;BME280;7185;51.854;6.622;2023-02-18T01:12:24;101842.97;;;11.85;100.00
14204;BME280;7185;51.854;6.622;2023-02-18T01:14:55;101838.56;;;11.85;100.00
14204;BME280;7185;51.854;6.622;2023-02-18T01:17:27;101832.47;;;11.78;100.00
14204;BME280;7185;51.854;6.622;2023-02-18T01:19:59;101829.88;;;11.71;100.00
14204;BME280;7185;51.854;6.622;2023-02-18T01:22:30;101827.22;;;11.78;100.00
14204;BME280;7185;51.854;6.622;2023-02-18T01:25:04;101830.72;;;11.79;100.00
14204;BME280;7185;51.854;6.622;2023-02-18T01:27:36;101837.75;;;11.75;100.00
14204;BME280;7185;51.854;6.622;2023-02-18T01:30:11;101834.25;;;11.70;100.00
14204;BME280;7185;51.854;6.622;2023-02-18T01:32:43;101844.69;;;11.92;100.00
14204;BME280;7185;51.854;6.622;2023-02-18T01:35:17;101835.06;;;11.88;100.00
14204;BME280;7185;51.854;6.622;2023-02-18T01:37:49;101834.19;;;11.92;100.00
14204;BME280;7185;51.854;6.622;2023-02-18T01:40:25;101828.06;;;11.80;100.00
14204;BME280;7185;51.854;6.622;2023-02-18T01:42:57;101819.31;;;11.85;100.00
14204;BME280;7185;51.854;6.622;2023-02-18T01:45:55;101822.03;;;11.66;100.00
14204;BME280;7185;51.854;6.622;2023-02-18T01:48:30;101819.31;;;11.85;100.00
14204;BME280;7185;51.854;6.622;2023-02-18T01:51:07;101817.56;;;11.87;100.00
14204;BME280;7185;51.854;6.622;2023-02-18T01:53:44;101806.16;;;11.88;100.00
14204;BME280;7185;51.854;6.622;2023-02-18T01:56:23;101818.47;;;11.76;100.00
14204;BME280;7185;51.854;6.622;2023-02-18T01:58:59;101805.31;;;11.83;100.00
14204;BME280;7185;51.854;6.622;2023-02-18T02:01:31;101802.72;;;11.70;100.00
14204;BME280;7185;51.854;6.622;2023-02-18T02:04:03;101794.84;;;11.75;100.00
14204;BME280;7185;51.854;6.622;2023-02-18T02:06:35;101801.81;;;11.74;100.00
14204;BME280;7185;51.854;6.622;2023-02-18T02:09:09;101800.97;;;11.72;100.00
14204;BME280;7185;51.854;6.622;2023-02-18T02:15:09;101781.69;;;11.76;100.00
14204;BME280;7185;51.854;6.622;2023-02-18T02:17:55;101778.19;;;11.76;100.00
14204;BME280;7185;51.854;6.622;2023-02-18T02:23:52;101781.72;;;11.73;100.00
14204;BME280;7185;51.854;6.622;2023-02-18T02:26:58;101776.47;;;11.67;100.00
14204;BME280;7185;51.854;6.622;2023-02-18T02:30:24;101769.47;;;11.63;100.00
14204;BME280;7185;51.854;6.622;2023-02-18T02:33:19;101759.78;;;11.77;100.00
14204;BME280;7185;51.854;6.622;2023-02-18T02:35:59;101761.59;;;11.63;100.00
14204;BME280;7185;51.854;6.622;2023-02-18T02:38:36;101757.19;;;11.68;100.00
14204;BME280;7185;51.854;6.622;2023-02-18T02:41:21;101752.84;;;11.59;100.00
14204;BME280;7185;51.854;6.622;2023-02-18T02:44:01;101744.13;;;11.59;100.00
14204;BME280;7185;51.854;6.622;2023-02-18T02:46:38;101732.66;;;11.69;100.00
14204;BME280;7185;51.854;6.622;2023-02-18T02:49:18;101717.75;;;11.76;100.00
14204;BME280;7185;51.854;6.622;2023-02-18T02:51:58;101707.25;;;11.74;100.00
14204;BME280;7185;51.854;6.622;2023-02-18T02:54:32;101703.78;;;11.68;100.00
14204;BME280;7185;51.854;6.622;2023-02-18T02:57:06;101699.34;;;11.74;100.00
14204;BME280;7185;51.854;6.622;2023-02-18T02:59:42;101685.38;;;11.72;100.00
14204;BME280;7185;51.854;6.622;2023-02-18T03:02:24;101686.25;;;11.73;100.00
14204;BME280;7185;51.854;6.622;2023-02-18T03:05:09;101691.53;;;11.67;100.00
14204;BME280;7185;51.854;6.622;2023-02-18T03:08:04;101686.25;;;11.68;100.00
14204;BME280;7185;51.854;6.622;2023-02-18T03:10:45;101685.38;;;11.69;100.00
14204;BME280;7185;51.854;6.622;2023-02-18T03:13:27;101676.63;;;11.73;100.00
14204;BME280;7185;51.854;6.622;2023-02-18T03:16:10;101673.13;;;11.71;100.00
14204;BME280;7185;51.854;6.622;2023-02-18T03:18:45;101664.44;;;11.58;100.00
14204;BME280;7185;51.854;6.622;2023-02-18T03:21:24;101667.94;;;11.59;100.00
14204;BME280;7185;51.854;6.622;2023-02-18T03:24:02;101655.69;;;11.58;100.00
14204;BME280;7185;51.854;6.622;2023-02-18T03:26:40;101653.06;;;11.58;100.00
14204;BME280;7185;51.854;6.622;2023-02-18T03:29:16;101650.44;;;11.58;100.00
14204;BME280;7185;51.854;6.622;2023-02-18T03:31:52;101648.69;;;11.55;100.00
14204;BME280;7185;51.854;6.622;2023-02-18T03:34:28;101645.19;;;11.58;100.00
14204;BME280;7185;51.854;6.622;2023-02-18T03:37:00;101639.00;;;11.62;100.00
14204;BME280;7185;51.854;6.622;2023-02-18T03:39:34;101639.88;;;11.64;100.00
14204;BME280;7185;51.854;6.622;2023-02-18T03:42:07;101638.13;;;11.63;100.00
14204;BME280;7185;51.854;6.622;2023-02-18T03:44:38;101629.38;;;11.61;100.00
14204;BME280;7185;51.854;6.622;2023-02-18T03:47:10;101635.44;;;11.71;100.00
14204;BME280;7185;51.854;6.622;2023-02-18T03:49:42;101635.47;;;11.69;100.00
14204;BME280;7185;51.854;6.622;2023-02-18T03:52:14;101637.19;;;11.76;100.00
14204;BME280;7185;51.854;6.622;2023-02-18T03:54:47;101625.84;;;11.67;100.00
14204;BME280;7185;51.854;6.622;2023-02-18T03:57:18;101622.25;;;11.82;100.00
14204;BME280;7185;51.854;6.622;2023-02-18T03:59:50;101617.88;;;11.79;100.00
14204;BME280;7185;51.854;6.622;2023-02-18T04:02:21;101609.16;;;11.77;100.00
14204;BME280;7185;51.854;6.622;2023-02-18T04:04:53;101610.16;;;11.59;100.00
14204;BME280;7185;51.854;6.622;2023-02-18T04:07:25;101607.44;;;11.68;100.00
14204;BME280;7185;51.854;6.622;2023-02-18T04:09:58;101601.34;;;11.66;100.00
14204;BME280;7185;51.854;6.622;2023-02-18T04:12:29;101594.31;;;11.68;100.00
14204;BME280;7185;51.854;6.622;2023-02-18T04:15:01;101580.34;;;11.60;100.00
14204;BME280;7185;51.854;6.622;2023-02-18T04:17:33;101581.19;;;11.67;100.00
14204;BME280;7185;51.854;6.622;2023-02-18T04:20:06;101593.44;;;11.69;100.00
14204;BME280;7185;51.854;6.622;2023-02-18T04:22:37;101578.59;;;11.62;100.00
14204;BME280;7185;51.854;6.622;2023-02-18T04:25:10;101585.56;;;11.68;100.00
14204;BME280;7185;51.854;6.622;2023-02-18T04:27:42;101579.47;;;11.64;100.00
14204;BME280;7185;51.854;6.622;2023-02-18T04:30:14;101564.63;;;11.57;100.00
14204;BME280;7185;51.854;6.622;2023-02-18T04:32:45;101569.94;;;11.51;100.00
14204;BME280;7185;51.854;6.622;2023-02-18T04:35:17;101569.97;;;11.43;100.00
14204;BME280;7185;51.854;6.622;2023-02-18T04:37:49;101571.69;;;11.52;100.00
14204;BME280;7185;51.854;6.622;2023-02-18T04:40:22;101561.97;;;11.61;100.00
14204;BME280;7185;51.854;6.622;2023-02-18T04:42:54;101561.94;;;11.66;100.00
14204;BME280;7185;51.854;6.622;2023-02-18T04:45:26;101565.38;;;11.73;100.00
14204;BME280;7185;51.854;6.622;2023-02-18T04:47:58;101565.47;;;11.65;100.00
14204;BME280;7185;51.854;6.622;2023-02-18T04:50:30;101554.91;;;11.71;100.00
14204;BME280;7185;51.854;6.622;2023-02-18T04:53:01;101548.94;;;11.51;100.00
14204;BME280;7185;51.854;6.622;2023-02-18T04:55:34;101550.63;;;11.58;100.00
14204;BME280;7185;51.854;6.622;2023-02-18T04:58:06;101546.25;;;11.57;100.00
14204;BME280;7185;51.854;6.622;2023-02-18T05:00:39;101551.53;;;11.49;100.00
14204;BME280;7185;51.854;6.622;2023-02-18T05:03:10;101541.13;;;11.35;100.00
14204;BME280;7185;51.854;6.622;2023-02-18T05:05:42;101526.22;;;11.43;100.00
14204;BME280;7185;51.854;6.622;2023-02-18T05:08:15;101527.09;;;11.41;100.00
14204;BME280;7185;51.854;6.622;2023-02-18T05:10:48;101532.38;;;11.41;100.00
14204;BME280;7185;51.854;6.622;2023-02-18T05:13:20;101519.16;;;11.45;100.00
14204;BME280;7185;51.854;6.622;2023-02-18T05:15:52;101527.00;;;11.53;100.00
14204;BME280;7185;51.854;6.622;2023-02-18T05:18:23;101513.13;;;11.37;100.00
14204;BME280;7185;51.854;6.622;2023-02-18T05:20:55;101506.91;;;11.51;100.00
14204;BME280;7185;51.854;6.622;2023-02-18T05:23:26;101499.88;;;11.51;100.00
14204;BME280;7185;51.854;6.622;2023-02-18T05:25:59;101492.91;;;11.48;100.00
14204;BME280;7185;51.854;6.622;2023-02-18T05:28:31;101490.28;;;11.47;100.00
14204;BME280;7185;51.854;6.622;2023-02-18T05:31:03;101482.34;;;11.58;100.00
14204;BME280;7185;51.854;6.622;2023-02-18T05:33:34;101475.34;;;11.57;100.00
14204;BME280;7185;51.854;6.622;2023-02-18T05:36:06;101484.25;;;11.37;100.00
14204;BME280;7185;51.854;6.622;2023-02-18T05:38:38;101477.19;;;11.42;100.00
14204;BME280;7185;51.854;6.622;2023-02-18T05:41:11;101470.13;;;11.51;100.00
14204;BME280;7185;51.854;6.622;2023-02-18T05:43:42;101493.72;;;11.54;100.00
14204;BME280;7185;51.854;6.622;2023-02-18T05:46:31;101477.16;;;11.48;100.00
14204;BME280;7185;51.854;6.622;2023-02-18T05:49:03;101473.75;;;11.34;100.00
14204;BME280;7185;51.854;6.622;2023-02-18T05:51:35;101473.75;;;11.34;100.00
14204;BME280;7185;51.854;6.622;2023-02-18T05:54:06;101469.97;;;11.69;100.00
14204;BME280;7185;51.854;6.622;2023-02-18T05:56:40;101463.09;;;11.53;100.00
14204;BME280;7185;51.854;6.622;2023-02-18T05:59:11;101465.63;;;11.67;100.00
14204;BME280;7185;51.854;6.622;2023-02-18T06:01:43;101455.31;;;11.43;100.00
14204;BME280;7185;51.854;6.622;2023-02-18T06:04:15;101462.41;;;11.34;100.00
14204;BME280;7185;51.854;6.622;2023-02-18T06:06:46;101457.09;;;11.40;100.00
14204;BME280;7185;51.854;6.622;2023-02-18T06:09:18;101467.66;;;11.34;100.00
14204;BME280;7185;51.854;6.622;2023-02-18T06:11:51;101469.47;;;11.22;100.00
14204;BME280;7185;51.854;6.622;2023-02-18T06:14:22;101450.06;;;11.42;100.00
14204;BME280;7185;51.854;6.622;2023-02-18T06:16:54;101447.44;;;11.40;100.00
14204;BME280;7185;51.854;6.622;2023-02-18T06:19:26;101457.16;;;11.34;100.00
14204;BME280;7185;51.854;6.622;2023-02-18T06:21:57;101449.22;;;11.40;100.00
14204;BME280;7185;51.854;6.622;2023-02-18T06:24:29;101461.50;;;11.36;100.00
14204;BME280;7185;51.854;6.622;2023-02-18T06:27:02;101456.25;;;11.36;100.00
14204;BME280;7185;51.854;6.622;2023-02-18T06:29:34;101445.75;;;11.33;100.00
14204;BME280;7185;51.854;6.622;2023-02-18T06:32:06;101457.16;;;11.34;100.00
14204;BME280;7185;51.854;6.622;2023-02-18T06:34:37;101448.44;;;11.27;100.00
14204;BME280;7185;51.854;6.622;2023-02-18T06:37:09;101453.78;;;11.13;100.00
14204;BME280;7185;51.854;6.622;2023-02-18T06:39:40;101445.69;;;11.42;100.00
14204;BME280;7185;51.854;6.622;2023-02-18T06:42:13;101452.69;;;11.40;100.00
14204;BME280;7185;51.854;6.622;2023-02-18T06:44:45;101465.09;;;11.20;100.00
14204;BME280;7185;51.854;6.622;2023-02-18T06:47:16;101466.84;;;11.21;100.00
14204;BME280;7185;51.854;6.622;2023-02-18T06:49:48;101460.59;;;11.39;100.00
14204;BME280;7185;51.854;6.622;2023-02-18T06:52:20;101458.00;;;11.34;100.00
14204;BME280;7185;51.854;6.622;2023-02-18T06:54:51;101468.56;;;11.28;100.00
14204;BME280;7185;51.854;6.622;2023-02-18T06:57:25;101461.53;;;11.30;100.00
14204;BME280;7185;51.854;6.622;2023-02-18T06:59:56;101456.25;;;11.36;100.00
14204;BME280;7185;51.854;6.622;2023-02-18T07:02:28;101451.88;;;11.32;100.00
14204;BME280;7185;51.854;6.622;2023-02-18T07:04:59;101453.72;;;11.21;100.00
14204;BME280;7185;51.854;6.622;2023-02-18T07:07:31;101463.28;;;11.31;100.00
14204;BME280;7185;51.854;6.622;2023-02-18T07:10:03;101467.63;;;11.32;100.00
14204;BME280;7185;51.854;6.622;2023-02-18T07:12:36;101465.06;;;11.29;100.00
14204;BME280;7185;51.854;6.622;2023-02-18T07:15:09;101464.19;;;11.25;100.00
14204;BME280;7185;51.854;6.622;2023-02-18T07:17:40;101473.91;;;11.12;100.00
14204;BME280;7185;51.854;6.622;2023-02-18T07:20:12;101465.88;;;11.34;100.00
14204;BME280;7185;51.854;6.622;2023-02-18T07:22:44;101462.44;;;11.29;100.00
14204;BME280;7185;51.854;6.622;2023-02-18T07:25:15;101465.00;;;11.35;100.00
14204;BME280;7185;51.854;6.622;2023-02-18T07:27:49;101461.50;;;11.33;100.00
14204;BME280;7185;51.854;6.622;2023-02-18T07:30:20;101462.38;;;11.32;100.00
14204;BME280;7185;51.854;6.622;2023-02-18T07:32:52;101465.09;;;11.20;100.00
14204;BME280;7185;51.854;6.622;2023-02-18T07:35:23;101459.81;;;11.29;100.00
14204;BME280;7185;51.854;6.622;2023-02-18T07:37:55;101450.09;;;11.39;100.00
14204;BME280;7185;51.854;6.622;2023-02-18T07:40:27;101454.31;;;11.57;100.00
14204;BME280;7185;51.854;6.622;2023-02-18T07:43:00;101468.22;;;11.71;100.00
14204;BME280;7185;51.854;6.622;2023-02-18T07:45:32;101481.50;;;11.54;100.00
14204;BME280;7185;51.854;6.622;2023-02-18T07:48:04;101471.00;;;11.51;100.00
14204;BME280;7185;51.854;6.622;2023-02-18T07:50:38;101476.19;;;11.59;100.00
14204;BME280;7185;51.854;6.622;2023-02-18T07:53:10;101481.56;;;11.42;100.00
14204;BME280;7185;51.854;6.622;2023-02-18T07:55:42;101470.00;;;11.66;100.00
14204;BME280;7185;51.854;6.622;2023-02-18T07:58:22;101468.09;;;11.80;100.00
14204;BME280;7185;51.854;6.622;2023-02-18T08:00:55;101460.31;;;11.73;100.00
14204;BME280;7185;51.854;6.622;2023-02-18T08:03:29;101457.63;;;11.77;100.00
14204;BME280;7185;51.854;6.622;2023-02-18T08:06:01;101468.16;;;11.77;100.00
14204;BME280;7185;51.854;6.622;2023-02-18T08:08:34;101453.25;;;11.79;100.00
14204;BME280;7185;51.854;6.622;2023-02-18T08:11:05;101471.84;;;11.58;100.00
14204;BME280;7185;51.854;6.622;2023-02-18T08:13:38;101465.63;;;11.63;100.00
14204;BME280;7185;51.854;6.622;2023-02-18T08:16:10;101470.78;;;11.76;100.00
14204;BME280;7185;51.854;6.622;2023-02-18T08:18:42;101461.03;;;11.89;100.00
14204;BME280;7185;51.854;6.622;2023-02-18T08:21:14;101462.88;;;11.77;100.00
14204;BME280;7185;51.854;6.622;2023-02-18T08:23:46;101455.81;;;11.86;100.00
14204;BME280;7185;51.854;6.622;2023-02-18T08:26:18;101469.84;;;11.82;100.00
14204;BME280;7185;51.854;6.622;2023-02-18T08:28:51;101463.00;;;11.65;100.00
14204;BME280;7185;51.854;6.622;2023-02-18T08:31:25;101466.53;;;11.61;100.00
14204;BME280;7185;51.854;6.622;2023-02-18T08:33:58;101457.75;;;11.65;100.00
14204;BME280;7185;51.854;6.622;2023-02-18T08:36:30;101466.69;;;11.42;100.00
14204;BME280;7185;51.854;6.622;2023-02-18T08:39:02;101468.66;;;11.15;100.00
14204;BME280;7185;51.854;6.622;2023-02-18T08:41:33;101475.66;;;11.16;100.00
14204;BME280;7185;51.854;6.622;2023-02-18T08:44:06;101477.50;;;10.99;100.00
14204;BME280;7185;51.854;6.622;2023-02-18T08:46:38;101472.84;;;11.37;100.00
14204;BME280;7185;51.854;6.622;2023-02-18T08:49:09;101486.88;;;11.36;100.00
14204;BME280;7185;51.854;6.622;2023-02-18T08:51:41;101479.03;;;11.31;100.00
14204;BME280;7185;51.854;6.622;2023-02-18T08:54:13;101478.91;;;11.46;100.00
14204;BME280;7185;51.854;6.622;2023-02-18T08:56:44;101478.75;;;11.63;100.00
14204;BME280;7185;51.854;6.622;2023-02-18T08:59:17;101487.63;;;11.52;100.00
14204;BME280;7185;51.854;6.622;2023-02-18T09:01:49;101471.97;;;11.39;100.00
14204;BME280;7185;51.854;6.622;2023-02-18T09:04:21;101464.88;;;11.51;100.00
14204;BME280;7185;51.854;6.622;2023-02-18T09:06:53;101475.44;;;11.44;100.00
14204;BME280;7185;51.854;6.622;2023-02-18T09:09:27;101482.47;;;11.39;100.00
14204;BME280;7185;51.854;6.622;2023-02-18T09:11:58;101460.50;;;11.50;100.00
14204;BME280;7185;51.854;6.622;2023-02-18T09:14:32;101467.00;;;10.99;100.00
14204;BME280;7185;51.854;6.622;2023-02-18T09:17:03;101470.31;;;11.26;100.00
14204;BME280;7185;51.854;6.622;2023-02-18T09:19:35;101473.91;;;11.15;100.00
14204;BME280;7185;51.854;6.622;2023-02-18T09:22:07;101482.81;;;10.83;100.00
14204;BME280;7185;51.854;6.622;2023-02-18T09:24:39;101478.41;;;10.90;100.00
14204;BME280;7185;51.854;6.622;2023-02-18T09:27:11;101474.84;;;11.00;100.00
14204;BME280;7185;51.854;6.622;2023-02-18T09:29:44;101474.88;;;10.94;100.00
14204;BME280;7185;51.854;6.622;2023-02-18T09:32:17;101484.44;;;11.06;100.00
14204;BME280;7185;51.854;6.622;2023-02-18T09:34:48;101472.19;;;11.05;100.00
14204;BME280;7185;51.854;6.622;2023-02-18T09:37:20;101466.97;;;11.02;100.00
14204;BME280;7185;51.854;6.622;2023-02-18T09:39:52;101484.47;;;10.97;100.00
14204;BME280;7185;51.854;6.622;2023-02-18T09:42:28;101487.94;;;11.08;100.00
14204;BME280;7185;51.854;6.622;2023-02-18T09:45:05;101494.09;;;11.01;100.00
14204;BME280;7185;51.854;6.622;2023-02-18T09:47:39;101502.00;;;10.92;100.00
14204;BME280;7185;51.854;6.622;2023-02-18T09:50:18;101495.94;;;10.79;100.00
14204;BME280;7185;51.854;6.622;2023-02-18T09:52:51;101496.81;;;10.81;100.00
14204;BME280;7185;51.854;6.622;2023-02-18T09:55:26;101495.94;;;10.85;100.00
14204;BME280;7185;51.854;6.622;2023-02-18T09:58:01;101496.81;;;10.86;100.00
14204;BME280;7185;51.854;6.622;2023-02-18T10:00:37;101492.22;;;11.22;100.00
14204;BME280;7185;51.854;6.622;2023-02-18T10:03:12;101494.97;;;11.00;100.00
14204;BME280;7185;51.854;6.622;2023-02-18T10:05:57;101488.88;;;10.93;100.00
14204;BME280;7185;51.854;6.622;2023-02-18T10:08:33;101495.09;;;10.81;100.00
14204;BME280;7185;51.854;6.622;2023-02-18T10:11:10;101496.88;;;10.70;100.00
14204;BME280;7185;51.854;6.622;2023-02-18T10:13:46;101511.75;;;10.62;100.00
14204;BME280;7185;51.854;6.622;2023-02-18T10:16:21;101510.88;;;10.71;100.00
14204;BME280;7185;51.854;6.622;2023-02-18T10:18:56;101500.38;;;10.72;100.00
14204;BME280;7185;51.854;6.622;2023-02-18T10:21:31;101510.91;;;10.57;100.00
14204;BME280;7185;51.854;6.622;2023-02-18T10:24:11;101508.31;;;10.54;100.00
14204;BME280;7185;51.854;6.622;2023-02-18T10:26:46;101510.06;;;10.51;100.00
14204;BME280;7185;51.854;6.622;2023-02-18T10:29:19;101518.75;;;10.67;100.00
14204;BME280;7185;51.854;6.622;2023-02-18T10:31:56;101512.63;;;10.67;100.00
14204;BME280;7185;51.854;6.622;2023-02-18T10:34:38;101516.16;;;10.52;100.00
14204;BME280;7185;51.854;6.622;2023-02-18T10:37:24;101532.75;;;10.62;100.00
14204;BME280;7185;51.854;6.622;2023-02-18T10:40:11;101529.16;;;10.84;100.00
14204;BME280;7185;51.854;6.622;2023-02-18T10:42:54;101534.47;;;10.67;100.00
14204;BME280;7185;51.854;6.622;2023-02-18T10:45:37;101530.09;;;10.74;100.00
14204;BME280;7185;51.854;6.622;2023-02-18T10:48:51;101519.56;;;10.82;100.00
14204;BME280;7185;51.854;6.622;2023-02-18T10:51:28;101531.81;;;10.75;100.00
14204;BME280;7185;51.854;6.622;2023-02-18T10:54:02;101528.41;;;10.58;100.00
14204;BME280;7185;51.854;6.622;2023-02-18T10:56:37;101542.34;;;10.63;100.00
14204;BME280;7185;51.854;6.622;2023-02-18T10:59:12;101538.78;;;10.86;100.00
14204;BME280;7185;51.854;6.622;2023-02-18T11:01:44;101548.38;;;10.88;100.00
14204;BME280;7185;51.854;6.622;2023-02-18T11:04:19;101535.28;;;10.79;100.00
14204;BME280;7185;51.854;6.622;2023-02-18T11:06:51;101542.31;;;10.78;100.00
14204;BME280;7185;51.854;6.622;2023-02-18T11:09:33;101545.81;;;10.68;100.00
14204;BME280;7185;51.854;6.622;2023-02-18T11:12:14;101544.06;;;10.70;100.00
14204;BME280;7185;51.854;6.622;2023-02-18T11:14:49;101548.38;;;10.91;100.00
14204;BME280;7185;51.854;6.622;2023-02-18T11:17:25;101545.91;;;10.57;100.00
14204;BME280;7185;51.854;6.622;2023-02-18T11:20:02;101540.59;;;10.70;100.00
14204;BME280;7185;51.854;6.622;2023-02-18T11:22:35;101543.25;;;10.54;100.00
14204;BME280;7185;51.854;6.622;2023-02-18T11:25:18;101545.81;;;10.68;100.00
14204;BME280;7185;51.854;6.622;2023-02-18T11:27:53;101538.84;;;10.70;100.00
14204;BME280;7185;51.854;6.622;2023-02-18T11:30:30;101555.41;;;10.75;100.00
14204;BME280;7185;51.854;6.622;2023-02-18T11:33:06;101538.88;;;10.64;100.00
14204;BME280;7185;51.854;6.622;2023-02-18T11:35:48;101537.06;;;10.74;100.00
14204;BME280;7185;51.854;6.622;2023-02-18T11:38:22;101549.41;;;10.45;100.00
14204;BME280;7185;51.854;6.622;2023-02-18T11:41:00;101528.31;;;10.79;100.00
14204;BME280;7185;51.854;6.622;2023-02-18T11:43:34;101542.31;;;10.69;100.00
14204;BME280;7185;51.854;6.622;2023-02-18T11:46:10;101541.44;;;10.72;100.00
14204;BME280;7185;51.854;6.622;2023-02-18T11:48:42;101538.84;;;10.70;100.00
14204;BME280;7185;51.854;6.622;2023-02-18T11:51:18;101538.00;;;10.63;100.00
14204;BME280;7185;51.854;6.622;2023-02-18T11:53:59;101538.00;;;10.63;100.00
14204;BME280;7185;51.854;6.622;2023-02-18T11:56:32;101543.19;;;10.68;100.00
14204;BME280;7185;51.854;6.622;2023-02-18T11:59:05;101540.59;;;10.66;100.00
14204;BME280;7185;51.854;6.622;2023-02-18T12:01:42;101545.81;;;10.77;100.00
14204;BME280;7185;51.854;6.622;2023-02-18T12:04:16;101552.84;;;10.71;100.00
14204;BME280;7185;51.854;6.622;2023-02-18T12:06:55;101545.81;;;10.77;100.00
14204;BME280;7185;51.854;6.622;2023-02-18T12:09:36;101546.66;;;10.86;100.00
14204;BME280;7185;51.854;6.622;2023-02-18T12:12:12;101534.41;;;10.88;100.00
14204;BME280;7185;51.854;6.622;2023-02-18T12:14:46;101549.25;;;10.95;100.00
14204;BME280;7185;51.854;6.622;2023-02-18T12:17:46;101544.03;;;10.86;100.00
14204;BME280;7185;51.854;6.622;2023-02-18T12:20:40;101546.53;;;11.09;100.00
14204;BME280;7185;51.854;6.622;2023-02-18T12:23:23;101536.88;;;11.12;100.00
14204;BME280;7185;51.854;6.622;2023-02-18T12:26:02;101534.25;;;11.15;100.00
14204;BME280;7185;51.854;6.622;2023-02-18T12:28:53;101530.72;;;11.24;100.00
14204;BME280;7185;51.854;6.622;2023-02-18T12:31:41;101521.06;;;11.26;100.00
14204;BME280;7185;51.854;6.622;2023-02-18T12:34:25;101522.78;;;11.32;100.00
14204;BME280;7185;51.854;6.622;2023-02-18T12:37:07;101523.63;;;11.37;100.00
14204;BME280;7185;51.854;6.622;2023-02-18T12:39:57;101519.34;;;11.24;100.00
14204;BME280;7185;51.854;6.622;2023-02-18T12:42:45;101519.34;;;11.24;100.00
14204;BME280;7185;51.854;6.622;2023-02-18T12:45:37;101509.72;;;11.24;100.00
14204;BME280;7185;51.854;6.622;2023-02-18T12:48:23;101515.81;;;11.28;100.00
14204;BME280;7185;51.854;6.622;2023-02-18T12:51:21;101519.34;;;11.18;100.00
14204;BME280;7185;51.854;6.622;2023-02-18T12:54:05;101528.06;;;11.29;100.00
14204;BME280;7185;51.854;6.622;2023-02-18T12:56:53;101522.78;;;11.32;100.00
14204;BME280;7185;51.854;6.622;2023-02-18T12:59:57;101528.94;;;11.28;100.00
14204;BME280;7185;51.854;6.622;2023-02-18T13:02:59;101529.72;;;11.39;100.00
14204;BME280;7185;51.854;6.622;2023-02-18T13:05:38;101532.47;;;11.22;100.00
14204;BME280;7185;51.854;6.622;2023-02-18T13:08:29;101527.25;;;11.14;100.00
14204;BME280;7185;51.854;6.622;2023-02-18T13:11:08;101534.16;;;11.32;100.00
14204;BME280;7185;51.854;6.622;2023-02-18T13:13:51;101536.81;;;11.25;100.00
14204;BME280;7185;51.854;6.622;2023-02-18T13:16:26;101534.06;;;11.42;100.00
14204;BME280;7185;51.854;6.622;2023-02-18T13:19:02;101540.22;;;11.42;100.00
14204;BME280;7185;51.854;6.622;2023-02-18T13:21:38;101545.50;;;11.38;100.00
14204;BME280;7185;51.854;6.622;2023-02-18T13:24:14;101549.00;;;11.38;100.00
14204;BME280;7185;51.854;6.622;2023-02-18T13:26:49;101553.34;;;11.39;100.00
14204;BME280;7185;51.854;6.622;2023-02-18T13:29:27;101541.13;;;11.38;100.00
14204;BME280;7185;51.854;6.622;2023-02-18T13:32:10;101552.47;;;11.43;100.00
14204;BME280;7185;51.854;6.622;2023-02-18T13:34:46;101534.06;;;11.48;100.00
14204;BME280;7185;51.854;6.622;2023-02-18T13:37:26;101540.13;;;11.55;100.00
14204;BME280;7185;51.854;6.622;2023-02-18T13:40:02;101532.28;;;11.50;100.00